Time;durP1;ratioP1;P1;durP2;ratioP2;P2;SDS_P1;SDS_P2;PMS_P1;PMS_P2;Temp;Humidity;BMP_temperature;BMP_pressure;BME280_temperature;BME280_humidity;BME280_pressure;Samples;Min_cycle;Max_cycle;Signal;HPM_P1;HPM_P2
2022/07/04 00:02:19;;;;;;;;;;;23.90;99.90;;;;;;5015560;28;20497;-78
2022/07/04 00:04:44;;;;;;;;;;;23.90;99.90;;;;;;5031951;28;19909;-77
2022/07/04 00:07:10;;;;;;;;;;;24.00;99.90;;;;;;5031027;28;19952;-77
2022/07/04 00:09:35;;;;;;;;;;;24.00;99.90;;;;;;5031204;28;20382;-78
2022/07/04 00:12:01;;;;;;;;;;;24.20;99.90;;;;;;5031115;28;19913;-78
2022/07/04 00:14:27;;;;;;;;;;;24.20;99.90;;;;;;5030993;28;20263;-79
2022/07/04 00:16:52;;;;;;;;;;;24.10;99.90;;;;;;5027506;28;19921;-78
2022/07/04 00:19:18;;;;;;;;;;;24.10;99.90;;;;;;5031918;28;19917;-78
2022/07/04 00:21:44;;;;;;;;;;;24.10;99.90;;;;;;5031134;28;20015;-78
2022/07/04 00:24:09;;;;;;;;;;;24.20;99.90;;;;;;5031967;28;20424;-78
2022/07/04 00:26:35;;;;;;;;;;;24.20;99.90;;;;;;5034927;28;19913;-78
2022/07/04 00:29:00;;;;;;;;;;;24.30;99.90;;;;;;5034901;28;19909;-78
2022/07/04 00:31:26;;;;;;;;;;;24.30;99.90;;;;;;5035717;28;19913;-78
2022/07/04 00:33:51;;;;;;;;;;;24.30;99.90;;;;;;5035146;28;19909;-77
2022/07/04 00:36:17;;;;;;;;;;;24.40;99.90;;;;;;5034873;28;20366;-78
2022/07/04 00:38:43;;;;;;;;;;;24.40;99.90;;;;;;5035003;28;20378;-78
2022/07/04 00:41:08;;;;;;;;;;;24.40;99.90;;;;;;5018956;28;19914;-78
2022/07/04 00:43:34;;;;;;;;;;;24.40;99.90;;;;;;5034945;28;19967;-78
2022/07/04 00:46:02;;;;;;;;;;;24.40;99.90;;;;;;5034755;28;20362;-78
2022/07/04 00:48:28;;;;;;;;;;;24.40;99.90;;;;;;5035171;28;19959;-78
2022/07/04 00:50:54;;;;;;;;;;;24.40;99.90;;;;;;5034744;28;19913;-79
2022/07/04 00:53:22;;;;;;;;;;;24.50;99.90;;;;;;5029234;28;19999;-78
2022/07/04 00:55:49;;;;;;;;;;;24.50;99.90;;;;;;5034960;28;20364;-78
2022/07/04 00:58:15;;;;;;;;;;;24.40;99.90;;;;;;5031679;28;19948;-77
2022/07/04 01:00:40;;;;;;;;;;;24.40;99.90;;;;;;5034076;28;20333;-78
2022/07/04 01:03:06;;;;;;;;;;;24.40;99.90;;;;;;5034121;28;19921;-78
2022/07/04 01:05:31;;;;;;;;;;;24.30;99.90;;;;;;5034863;28;20008;-78
2022/07/04 01:07:58;;;;;;;;;;;24.40;99.90;;;;;;5034843;28;19916;-78
2022/07/04 01:10:23;;;;;;;;;;;24.40;99.90;;;;;;5022540;28;20220;-78
2022/07/04 01:12:49;;;;;;;;;;;24.40;99.90;;;;;;5029304;28;20389;-78
2022/07/04 01:15:14;;;;;;;;;;;24.40;99.90;;;;;;5034049;28;19932;-78
2022/07/04 01:17:40;;;;;;;;;;;24.30;99.90;;;;;;5034207;28;20479;-78
2022/07/04 01:20:10;;;;;;;;;;;24.30;99.90;;;;;;5018327;28;19918;-78
2022/07/04 01:22:35;;;;;;;;;;;24.30;99.90;;;;;;5019345;28;19957;-78
2022/07/04 01:25:01;;;;;;;;;;;24.30;99.90;;;;;;5031639;28;19956;-78
2022/07/04 01:27:26;;;;;;;;;;;24.20;99.90;;;;;;5033385;28;20385;-78
2022/07/04 01:29:52;;;;;;;;;;;24.30;99.90;;;;;;5033896;28;20297;-78
2022/07/04 01:32:17;;;;;;;;;;;24.20;99.90;;;;;;5033670;28;19921;-78
2022/07/04 01:34:43;;;;;;;;;;;24.20;99.90;;;;;;5034532;28;20015;-78
2022/07/04 01:37:09;;;;;;;;;;;24.20;99.90;;;;;;5032615;28;19960;-78
2022/07/04 01:39:34;;;;;;;;;;;24.20;99.90;;;;;;5033992;28;19971;-78
2022/07/04 01:42:00;;;;;;;;;;;24.20;99.90;;;;;;5033201;28;19921;-78
2022/07/04 01:44:25;;;;;;;;;;;24.30;99.90;;;;;;5033639;28;20394;-78
2022/07/04 01:46:51;;;;;;;;;;;24.20;99.90;;;;;;5032905;28;20019;-78
2022/07/04 01:49:16;;;;;;;;;;;24.20;99.90;;;;;;5033362;28;19912;-78
2022/07/04 01:51:46;;;;;;;;;;;24.20;99.90;;;;;;5032258;28;19967;-78
2022/07/04 01:54:12;;;;;;;;;;;24.20;99.90;;;;;;5033580;28;19953;-78
2022/07/04 01:56:38;;;;;;;;;;;24.20;99.90;;;;;;5033313;28;19949;-78
2022/07/04 01:59:03;;;;;;;;;;;24.10;99.90;;;;;;5033614;28;19928;-78
2022/07/04 02:01:29;;;;;;;;;;;24.10;99.90;;;;;;5033598;28;19909;-78
2022/07/04 02:03:58;;;;;;;;;;;24.00;99.90;;;;;;5033337;28;19913;-78
2022/07/04 02:06:24;;;;;;;;;;;24.00;99.90;;;;;;5033247;28;20271;-78
2022/07/04 02:14:18;;;;;;;;;;;24.00;99.90;;;;;;5033148;28;19967;-78
2022/07/04 02:16:44;;;;;;;;;;;23.90;99.90;;;;;;5033734;28;19941;-78
2022/07/04 02:19:10;;;;;;;;;;;23.90;99.90;;;;;;5032891;28;19928;-78
2022/07/04 02:21:35;;;;;;;;;;;24.00;99.90;;;;;;5032855;28;20351;-78
2022/07/04 02:24:01;;;;;;;;;;;24.00;99.90;;;;;;5032669;28;19913;-78
2022/07/04 02:26:26;;;;;;;;;;;23.90;99.90;;;;;;5032867;28;20400;-78
2022/07/04 02:28:52;;;;;;;;;;;23.80;99.90;;;;;;5029279;28;19920;-78
2022/07/04 02:31:18;;;;;;;;;;;23.80;99.90;;;;;;5033292;28;20008;-78
2022/07/04 02:33:43;;;;;;;;;;;23.80;99.90;;;;;;5032736;28;20004;-78
2022/07/04 02:36:09;;;;;;;;;;;23.70;99.90;;;;;;5031061;28;19971;-78
2022/07/04 02:38:34;;;;;;;;;;;23.70;99.90;;;;;;5017617;28;19928;-78
2022/07/04 02:41:00;;;;;;;;;;;23.70;99.90;;;;;;5030711;28;19919;-78
2022/07/04 02:43:26;;;;;;;;;;;23.60;99.90;;;;;;5021568;28;20007;-78
2022/07/04 02:45:51;;;;;;;;;;;23.70;99.90;;;;;;5028681;28;20278;-78
2022/07/04 02:48:17;;;;;;;;;;;23.60;99.90;;;;;;5032018;28;19913;-79
2022/07/04 02:50:43;;;;;;;;;;;23.70;99.90;;;;;;5032864;28;19959;-78
2022/07/04 02:53:08;;;;;;;;;;;23.60;99.90;;;;;;5032220;28;19963;-78
2022/07/04 02:55:34;;;;;;;;;;;23.60;99.90;;;;;;5032539;28;19909;-78
2022/07/04 02:57:59;;;;;;;;;;;23.60;99.90;;;;;;5031901;28;20259;-78
2022/07/04 03:00:25;;;;;;;;;;;23.60;99.90;;;;;;5032925;28;19913;-79
2022/07/04 03:02:50;;;;;;;;;;;23.70;99.90;;;;;;5032140;28;19948;-78
2022/07/04 03:05:16;;;;;;;;;;;23.70;99.90;;;;;;5032230;28;19925;-79
2022/07/04 03:07:42;;;;;;;;;;;23.70;99.90;;;;;;5032278;28;19955;-79
2022/07/04 03:10:07;;;;;;;;;;;23.60;99.90;;;;;;5032070;28;19909;-78
2022/07/04 03:12:33;;;;;;;;;;;23.60;99.90;;;;;;5032467;28;20285;-78
2022/07/04 03:14:59;;;;;;;;;;;23.60;99.90;;;;;;5032026;28;20279;-79
2022/07/04 03:17:29;;;;;;;;;;;23.50;99.90;;;;;;5016327;28;20263;-79
2022/07/04 03:19:54;;;;;;;;;;;23.50;99.90;;;;;;5029047;28;19910;-79
2022/07/04 03:22:20;;;;;;;;;;;23.60;99.90;;;;;;5031639;28;19909;-78
2022/07/04 03:24:46;;;;;;;;;;;23.50;99.90;;;;;;5031700;28;20003;-79
2022/07/04 03:27:11;;;;;;;;;;;23.50;99.90;;;;;;5029515;28;19913;-79
2022/07/04 03:29:37;;;;;;;;;;;23.50;99.90;;;;;;5017529;28;19913;-79
2022/07/04 03:32:03;;;;;;;;;;;23.50;99.90;;;;;;5032008;28;19909;-79
2022/07/04 03:34:28;;;;;;;;;;;23.40;99.90;;;;;;5031195;28;19916;-78
2022/07/04 03:36:54;;;;;;;;;;;23.40;99.90;;;;;;5031384;28;19919;-78
2022/07/04 03:39:19;;;;;;;;;;;23.40;99.90;;;;;;5031580;28;19928;-79
2022/07/04 03:41:45;;;;;;;;;;;23.30;99.90;;;;;;5031226;28;20313;-79
2022/07/04 03:44:11;;;;;;;;;;;23.30;99.90;;;;;;5015294;28;19913;-79
2022/07/04 03:46:36;;;;;;;;;;;23.30;99.90;;;;;;5017332;28;19913;-79
2022/07/04 03:49:02;;;;;;;;;;;23.30;99.90;;;;;;5028852;28;20344;-79
2022/07/04 03:51:27;;;;;;;;;;;23.20;99.90;;;;;;5031056;28;19982;-79
2022/07/04 03:53:53;;;;;;;;;;;23.20;99.90;;;;;;5022716;28;19909;-79
2022/07/04 03:56:18;;;;;;;;;;;23.20;99.90;;;;;;5015575;28;19921;-78
2022/07/04 03:58:48;;;;;;;;;;;23.20;99.90;;;;;;5031871;28;20011;-79
2022/07/04 04:01:17;;;;;;;;;;;23.20;99.90;;;;;;5035395;28;19932;-79
2022/07/04 04:06:27;;;;;;;;;;;23.10;99.90;;;;;;5035530;28;19963;-79
2022/07/04 04:08:53;;;;;;;;;;;23.00;99.90;;;;;;5035494;28;20332;-79
2022/07/04 04:11:18;;;;;;;;;;;23.10;99.90;;;;;;5035349;28;19911;-79
2022/07/04 04:13:44;;;;;;;;;;;23.10;99.90;;;;;;5035917;28;20398;-79
2022/07/04 04:16:10;;;;;;;;;;;23.10;99.90;;;;;;5035588;28;19991;-79
2022/07/04 04:18:35;;;;;;;;;;;23.10;99.90;;;;;;5031148;28;20581;-78
2022/07/04 04:21:01;;;;;;;;;;;23.10;99.90;;;;;;5034518;28;19913;-79
2022/07/04 04:23:26;;;;;;;;;;;23.20;99.90;;;;;;5035406;28;19944;-78
2022/07/04 04:25:52;;;;;;;;;;;23.10;99.90;;;;;;5036176;28;19910;-79
2022/07/04 04:28:17;;;;;;;;;;;23.10;99.90;;;;;;5034897;28;19920;-79
2022/07/04 04:30:43;;;;;;;;;;;23.10;99.90;;;;;;5035111;28;19920;-79
2022/07/04 04:33:08;;;;;;;;;;;23.10;99.90;;;;;;5033551;28;20003;-78
2022/07/04 04:35:34;;;;;;;;;;;23.10;99.90;;;;;;5020078;28;19913;-78
2022/07/04 04:38:00;;;;;;;;;;;23.10;99.90;;;;;;5035695;28;19919;-79
2022/07/04 04:40:25;;;;;;;;;;;23.20;99.90;;;;;;5027772;28;19916;-79
2022/07/04 04:42:51;;;;;;;;;;;23.30;99.90;;;;;;5022849;28;19921;-80
2022/07/04 04:45:16;;;;;;;;;;;23.30;99.90;;;;;;5026082;28;19913;-79
2022/07/04 04:47:43;;;;;;;;;;;23.30;99.90;;;;;;5034988;28;19957;-79
2022/07/04 04:50:11;;;;;;;;;;;23.30;99.90;;;;;;5034553;28;19916;-79
2022/07/04 04:52:37;;;;;;;;;;;23.10;99.90;;;;;;5035412;28;19988;-79
2022/07/04 04:55:03;;;;;;;;;;;23.00;99.90;;;;;;5034512;28;19913;-79
2022/07/04 04:57:29;;;;;;;;;;;23.10;99.90;;;;;;5030381;28;19913;-79
2022/07/04 04:59:54;;;;;;;;;;;23.20;99.90;;;;;;5034380;28;19913;-79
2022/07/04 05:02:20;;;;;;;;;;;23.20;99.90;;;;;;5034949;28;19913;-79
2022/07/04 05:04:46;;;;;;;;;;;23.10;99.90;;;;;;5034548;28;20011;-79
2022/07/04 05:07:11;;;;;;;;;;;23.20;99.90;;;;;;5026636;28;19920;-79
2022/07/04 05:09:37;;;;;;;;;;;23.20;99.90;;;;;;5028265;28;19914;-78
2022/07/04 05:12:02;;;;;;;;;;;23.10;99.90;;;;;;5034346;28;19913;-79
2022/07/04 05:14:28;;;;;;;;;;;23.00;99.90;;;;;;5018717;28;19992;-79
2022/07/04 05:16:54;;;;;;;;;;;22.80;99.90;;;;;;5034941;28;20274;-79
2022/07/04 05:19:19;;;;;;;;;;;22.90;99.90;;;;;;5022364;28;20385;-78
2022/07/04 05:21:45;;;;;;;;;;;22.70;99.90;;;;;;5029383;28;20389;-77
2022/07/04 05:24:11;;;;;;;;;;;22.80;99.90;;;;;;5034006;28;19913;-77
2022/07/04 05:26:37;;;;;;;;;;;22.70;99.90;;;;;;5033922;28;19962;-74
2022/07/04 05:29:02;;;;;;;;;;;22.70;99.90;;;;;;5028940;28;19921;-73
2022/07/04 05:31:28;;;;;;;;;;;22.60;99.90;;;;;;5022607;28;19921;-73
2022/07/04 05:33:54;;;;;;;;;;;22.70;99.90;;;;;;5029477;28;20374;-73
2022/07/04 05:36:20;;;;;;;;;;;22.70;99.90;;;;;;5025365;28;20000;-73
2022/07/04 05:38:45;;;;;;;;;;;23.00;99.90;;;;;;5033910;28;19917;-73
2022/07/04 05:41:11;;;;;;;;;;;22.90;99.90;;;;;;5031485;28;20032;-73
2022/07/04 05:43:36;;;;;;;;;;;23.00;99.90;;;;;;5034155;28;19909;-73
2022/07/04 05:46:03;;;;;;;;;;;23.10;99.90;;;;;;5033648;28;19990;-73
2022/07/04 05:48:29;;;;;;;;;;;23.20;99.90;;;;;;5026230;28;19913;-73
2022/07/04 05:50:54;;;;;;;;;;;23.20;99.90;;;;;;5033976;28;19920;-73
2022/07/04 05:53:20;;;;;;;;;;;23.30;99.90;;;;;;5017728;28;19921;-73
2022/07/04 05:55:45;;;;;;;;;;;23.40;99.90;;;;;;5034367;28;19951;-73
2022/07/04 05:58:11;;;;;;;;;;;23.50;99.90;;;;;;5023407;28;19922;-73
2022/07/04 06:00:39;;;;;;;;;;;23.60;99.90;;;;;;5027310;28;20076;-73
2022/07/04 06:03:05;;;;;;;;;;;23.60;99.90;;;;;;5031819;28;20011;-73
2022/07/04 06:05:31;;;;;;;;;;;23.60;99.90;;;;;;5026209;28;19913;-73
2022/07/04 06:07:56;;;;;;;;;;;23.70;99.90;;;;;;5033845;28;19959;-74
2022/07/04 06:10:22;;;;;;;;;;;23.80;99.90;;;;;;5027790;28;19936;-74
2022/07/04 06:12:48;;;;;;;;;;;23.90;99.90;;;;;;5033113;28;19914;-73
2022/07/04 06:15:15;;;;;;;;;;;23.90;99.90;;;;;;5033115;28;19913;-73
2022/07/04 06:17:40;;;;;;;;;;;24.00;99.90;;;;;;5032176;28;19928;-73
2022/07/04 06:20:07;;;;;;;;;;;24.00;99.90;;;;;;5033197;28;20366;-73
2022/07/04 06:22:42;;;;;;;;;;;24.10;99.90;;;;;;5032769;28;20008;-73
2022/07/04 06:25:12;;;;;;;;;;;24.20;99.90;;;;;;5033052;28;20362;-73
2022/07/04 06:27:37;;;;;;;;;;;24.20;99.90;;;;;;5027128;28;20055;-73
2022/07/04 06:30:03;;;;;;;;;;;24.30;99.90;;;;;;5032077;28;20000;-79
2022/07/04 06:32:29;;;;;;;;;;;24.30;99.90;;;;;;5020130;28;19956;-73
2022/07/04 06:37:40;;;;;;;;;;;24.50;99.90;;;;;;4970345;28;19914;-74
2022/07/04 06:40:06;;;;;;;;;;;24.60;99.90;;;;;;4971885;28;19925;-73
2022/07/04 06:42:32;;;;;;;;;;;24.60;99.90;;;;;;4971496;28;20315;-74
2022/07/04 06:44:57;;;;;;;;;;;24.70;99.90;;;;;;4971226;28;19910;-73
2022/07/04 06:47:23;;;;;;;;;;;24.80;99.90;;;;;;4971505;28;19989;-74
2022/07/04 06:49:48;;;;;;;;;;;24.90;99.90;;;;;;4972583;28;20479;-73
2022/07/04 06:52:14;;;;;;;;;;;24.90;99.90;;;;;;4971200;28;20430;-74
2022/07/04 06:54:39;;;;;;;;;;;24.90;99.90;;;;;;4971481;28;20323;-74
2022/07/04 06:57:05;;;;;;;;;;;24.90;99.90;;;;;;4971239;28;20471;-74
2022/07/04 06:59:30;;;;;;;;;;;25.10;99.90;;;;;;4971505;28;19922;-74
2022/07/04 07:01:56;;;;;;;;;;;25.10;99.90;;;;;;4971820;28;20165;-74
2022/07/04 07:04:21;;;;;;;;;;;25.10;99.90;;;;;;4970988;28;19998;-74
2022/07/04 07:06:47;;;;;;;;;;;25.20;99.90;;;;;;4971361;28;19914;-73
2022/07/04 07:09:12;;;;;;;;;;;25.30;99.90;;;;;;4971244;28;19953;-74
2022/07/04 07:11:38;;;;;;;;;;;25.30;99.90;;;;;;4971176;28;19921;-74
2022/07/04 07:14:04;;;;;;;;;;;25.50;99.90;;;;;;4980724;28;20385;-74
2022/07/04 07:16:29;;;;;;;;;;;25.60;99.90;;;;;;5032242;28;19936;-76
2022/07/04 07:18:55;;;;;;;;;;;25.60;99.90;;;;;;5031788;28;19949;-80
2022/07/04 07:21:20;;;;;;;;;;;25.60;99.90;;;;;;5031613;28;19921;-81
2022/07/04 07:23:46;;;;;;;;;;;25.70;99.90;;;;;;5032013;28;19975;-75
2022/07/04 07:26:12;;;;;;;;;;;25.80;99.90;;;;;;5025592;28;20333;-80
2022/07/04 07:28:37;;;;;;;;;;;25.90;99.90;;;;;;5023562;28;20377;-79
2022/07/04 07:31:03;;;;;;;;;;;25.90;99.90;;;;;;5026278;28;19967;-80
2022/07/04 07:33:29;;;;;;;;;;;25.90;99.90;;;;;;5026379;28;19936;-80
2022/07/04 07:35:54;;;;;;;;;;;25.90;99.90;;;;;;5021212;28;20358;-80
2022/07/04 07:38:20;;;;;;;;;;;25.90;99.90;;;;;;5031806;28;19921;-79
2022/07/04 07:40:45;;;;;;;;;;;26.00;99.90;;;;;;5032168;28;19920;-79
2022/07/04 07:43:11;;;;;;;;;;;26.10;99.90;;;;;;5030842;28;19970;-80
2022/07/04 07:45:37;;;;;;;;;;;26.20;99.90;;;;;;5030542;28;20337;-80
2022/07/04 07:48:03;;;;;;;;;;;26.30;99.90;;;;;;5024974;28;19925;-80
2022/07/04 07:50:28;;;;;;;;;;;26.40;99.90;;;;;;5025964;28;20000;-80
2022/07/04 07:52:54;;;;;;;;;;;26.50;99.90;;;;;;5024936;28;19920;-80
2022/07/04 07:55:19;;;;;;;;;;;26.50;99.80;;;;;;5025234;28;19913;-80
2022/07/04 07:57:45;;;;;;;;;;;26.60;99.80;;;;;;5024971;28;20427;-80
2022/07/04 08:00:11;;;;;;;;;;;26.60;99.90;;;;;;5025044;28;19921;-81
2022/07/04 08:05:20;;;;;;;;;;;26.70;99.80;;;;;;5026799;28;19924;-80
2022/07/04 08:07:46;;;;;;;;;;;26.70;99.30;;;;;;5027676;28;19913;-80
2022/07/04 08:10:12;;;;;;;;;;;27.00;98.70;;;;;;5025570;28;19917;-80
2022/07/04 08:12:37;;;;;;;;;;;27.00;98.40;;;;;;5024977;28;19913;-80
2022/07/04 08:15:03;;;;;;;;;;;27.00;98.30;;;;;;5025161;28;19928;-80
2022/07/04 08:17:29;;;;;;;;;;;27.10;97.90;;;;;;5025335;28;19967;-79
2022/07/04 08:19:55;;;;;;;;;;;27.20;98.00;;;;;;5029022;28;19917;-80
2022/07/04 08:22:20;;;;;;;;;;;27.40;97.40;;;;;;5025283;28;20393;-80
2022/07/04 08:24:46;;;;;;;;;;;27.40;97.10;;;;;;5025113;28;19917;-80
2022/07/04 08:27:12;;;;;;;;;;;27.40;96.90;;;;;;5024608;28;19913;-79
2022/07/04 08:29:37;;;;;;;;;;;27.40;96.90;;;;;;5025043;28;20398;-80
2022/07/04 08:32:03;;;;;;;;;;;27.40;96.80;;;;;;5028243;28;19920;-79
2022/07/04 08:34:29;;;;;;;;;;;27.40;96.60;;;;;;5026121;28;19924;-80
2022/07/04 08:36:55;;;;;;;;;;;27.40;96.90;;;;;;5025204;28;19953;-80
2022/07/04 08:39:20;;;;;;;;;;;27.50;96.60;;;;;;5025976;28;20018;-80
2022/07/04 08:41:46;;;;;;;;;;;27.60;96.40;;;;;;5024880;28;20254;-79
2022/07/04 08:44:12;;;;;;;;;;;27.80;95.30;;;;;;5027528;28;19924;-80
2022/07/04 08:46:39;;;;;;;;;;;27.80;95.80;;;;;;5027521;28;19914;-80
2022/07/04 08:49:09;;;;;;;;;;;27.80;95.80;;;;;;5028687;28;20305;-80
2022/07/04 08:51:44;;;;;;;;;;;27.90;95.40;;;;;;5028428;28;19983;-80
2022/07/04 08:59:40;;;;;;;;;;;28.20;93.80;;;;;;5013824;28;19976;-80
2022/07/04 09:02:06;;;;;;;;;;;28.10;94.70;;;;;;5027873;28;19909;-80
2022/07/04 09:04:32;;;;;;;;;;;28.10;94.60;;;;;;5030378;28;20341;-80
2022/07/04 09:06:57;;;;;;;;;;;28.40;94.20;;;;;;5030923;28;19913;-80
2022/07/04 09:09:24;;;;;;;;;;;28.30;94.00;;;;;;5032962;28;19913;-78
2022/07/04 09:11:50;;;;;;;;;;;28.60;93.00;;;;;;5034196;28;19976;-79
2022/07/04 09:14:15;;;;;;;;;;;28.70;92.40;;;;;;5027690;28;20229;-80
2022/07/04 09:16:41;;;;;;;;;;;28.90;92.80;;;;;;5024276;28;19914;-80
2022/07/04 09:19:18;;;;;;;;;;;28.80;92.40;;;;;;5025323;28;20397;-80
2022/07/04 09:21:48;;;;;;;;;;;28.90;92.20;;;;;;5025270;28;19917;-80
2022/07/04 09:24:13;;;;;;;;;;;29.20;92.10;;;;;;5024789;28;20264;-79
2022/07/04 09:26:46;;;;;;;;;;;29.50;91.30;;;;;;5024058;28;19959;-80
2022/07/04 09:29:11;;;;;;;;;;;29.30;91.20;;;;;;5022461;28;19909;-80
2022/07/04 09:31:37;;;;;;;;;;;29.00;91.60;;;;;;5025485;28;19921;-79
2022/07/04 09:34:03;;;;;;;;;;;29.00;91.80;;;;;;5027292;28;20334;-79
2022/07/04 09:36:30;;;;;;;;;;;29.20;90.80;;;;;;5030198;28;20290;-76
2022/07/04 09:39:15;;;;;;;;;;;29.30;90.90;;;;;;5021019;28;19924;-80
2022/07/04 09:41:54;;;;;;;;;;;29.40;91.50;;;;;;5019482;28;19966;-80
2022/07/04 09:44:21;;;;;;;;;;;29.40;90.20;;;;;;5034137;28;19974;-79
2022/07/04 09:46:46;;;;;;;;;;;29.60;89.50;;;;;;5020371;28;19921;-80
2022/07/04 09:49:12;;;;;;;;;;;29.70;90.10;;;;;;5031966;28;19917;-80
2022/07/04 09:51:39;;;;;;;;;;;30.00;87.60;;;;;;5033928;28;19917;-81
2022/07/04 09:54:23;;;;;;;;;;;29.90;88.20;;;;;;5033220;28;19920;-80
2022/07/04 09:56:51;;;;;;;;;;;30.10;88.90;;;;;;5032289;28;19918;-80
2022/07/04 09:59:16;;;;;;;;;;;29.90;88.80;;;;;;5033467;28;20339;-80
2022/07/04 10:01:43;;;;;;;;;;;30.00;86.50;;;;;;5033873;28;19991;-79
2022/07/04 10:04:09;;;;;;;;;;;30.10;87.70;;;;;;5033015;28;19991;-79
2022/07/04 10:06:37;;;;;;;;;;;30.10;87.20;;;;;;5008783;28;19913;-79
2022/07/04 10:09:10;;;;;;;;;;;30.10;85.30;;;;;;5015884;28;19928;-79
2022/07/04 10:11:38;;;;;;;;;;;30.10;85.20;;;;;;5025582;28;19914;-79
2022/07/04 10:14:07;;;;;;;;;;;30.10;86.30;;;;;;5031302;28;19917;-81
2022/07/04 10:16:33;;;;;;;;;;;30.30;85.40;;;;;;5028471;28;20002;-80
2022/07/04 10:18:59;;;;;;;;;;;30.40;85.10;;;;;;5028120;28;20370;-78
2022/07/04 10:21:24;;;;;;;;;;;30.50;84.90;;;;;;5028981;28;20271;-79
2022/07/04 10:23:52;;;;;;;;;;;30.40;83.50;;;;;;5028961;28;20301;-77
2022/07/04 10:26:22;;;;;;;;;;;30.30;84.40;;;;;;5029943;28;19921;-77
2022/07/04 10:28:49;;;;;;;;;;;30.10;83.50;;;;;;5025374;28;19917;-78
2022/07/04 10:31:15;;;;;;;;;;;29.90;83.40;;;;;;5025896;28;19910;-78
2022/07/04 10:33:41;;;;;;;;;;;29.60;84.00;;;;;;5025614;28;19999;-78
2022/07/04 10:36:14;;;;;;;;;;;29.40;84.30;;;;;;5024145;28;20386;-77
2022/07/04 10:38:50;;;;;;;;;;;29.20;83.40;;;;;;5023333;28;19921;-78
2022/07/04 10:41:18;;;;;;;;;;;29.20;84.00;;;;;;5023686;28;19909;-77
2022/07/04 10:43:50;;;;;;;;;;;29.10;84.60;;;;;;5012678;28;19922;-78
2022/07/04 10:46:15;;;;;;;;;;;29.10;87.70;;;;;;5026920;28;19920;-77
2022/07/04 10:48:55;;;;;;;;;;;28.90;95.10;;;;;;5029114;28;19913;-71
2022/07/04 10:51:50;;;;;;;;;;;28.60;99.50;;;;;;5028395;28;19953;-75
2022/07/04 10:54:24;;;;;;;;;;;28.00;99.90;;;;;;5015197;28;20015;-76
2022/07/04 10:56:54;;;;;;;;;;;27.60;99.90;;;;;;5028449;28;20306;-76
2022/07/04 10:59:21;;;;;;;;;;;27.40;99.90;;;;;;5030052;28;19979;-77
2022/07/04 11:02:09;;;;;;;;;;;27.20;99.90;;;;;;5031330;28;20361;-74
2022/07/04 11:04:45;;;;;;;;;;;27.10;99.90;;;;;;5031421;28;20294;-73
2022/07/04 11:07:11;;;;;;;;;;;26.90;99.90;;;;;;5027596;28;20382;-73
2022/07/04 11:09:36;;;;;;;;;;;26.80;99.90;;;;;;5027685;28;19964;-73
2022/07/04 11:12:04;;;;;;;;;;;26.90;99.90;;;;;;5028450;28;19909;-73
2022/07/04 11:14:32;;;;;;;;;;;27.40;99.90;;;;;;5013992;28;19920;-73
2022/07/04 11:16:58;;;;;;;;;;;27.50;99.90;;;;;;5028713;28;19909;-73
2022/07/04 11:19:24;;;;;;;;;;;27.60;99.90;;;;;;5027798;28;20302;-73
2022/07/04 11:21:49;;;;;;;;;;;27.60;99.90;;;;;;5027460;28;19921;-73
2022/07/04 11:24:15;;;;;;;;;;;27.50;99.90;;;;;;5029755;28;19917;-74
2022/07/04 11:26:40;;;;;;;;;;;27.60;99.90;;;;;;5027987;28;19954;-73
2022/07/04 11:29:06;;;;;;;;;;;27.60;99.90;;;;;;5030878;28;19971;-73
2022/07/04 11:31:42;;;;;;;;;;;27.70;99.90;;;;;;5031093;28;19921;-73
2022/07/04 11:34:08;;;;;;;;;;;27.80;99.90;;;;;;5027686;28;20218;-73
2022/07/04 11:36:34;;;;;;;;;;;27.90;99.90;;;;;;5029421;28;19913;-74
2022/07/04 11:39:01;;;;;;;;;;;28.00;99.90;;;;;;5029430;28;19917;-74
2022/07/04 11:47:12;;;;;;;;;;;28.40;99.90;;;;;;5027827;28;20008;-76
2022/07/04 11:49:56;;;;;;;;;;;28.60;99.90;;;;;;5026937;28;19920;-76
2022/07/04 11:52:29;;;;;;;;;;;28.70;98.10;;;;;;5024565;28;19916;-76
2022/07/04 11:54:55;;;;;;;;;;;28.90;96.50;;;;;;5024414;28;20294;-76
2022/07/04 11:57:25;;;;;;;;;;;29.00;99.10;;;;;;5024836;28;19913;-76
2022/07/04 12:00:00;;;;;;;;;;;29.20;99.40;;;;;;5025735;28;19925;-76
2022/07/04 12:02:27;;;;;;;;;;;29.00;98.20;;;;;;5023733;28;19913;-76
2022/07/04 12:04:53;;;;;;;;;;;29.10;99.90;;;;;;5028316;28;20302;-76
2022/07/04 12:07:19;;;;;;;;;;;29.20;97.70;;;;;;5024752;28;19915;-76
2022/07/04 12:09:46;;;;;;;;;;;29.40;94.20;;;;;;5025141;28;19956;-76
2022/07/04 12:12:13;;;;;;;;;;;29.40;95.90;;;;;;5024416;28;19984;-76
2022/07/04 12:14:39;;;;;;;;;;;29.50;95.20;;;;;;5026573;28;19924;-76
2022/07/04 12:17:08;;;;;;;;;;;29.60;96.10;;;;;;5021662;28;19913;-77
2022/07/04 12:19:34;;;;;;;;;;;29.70;97.00;;;;;;5027124;28;19921;-79
2022/07/04 12:21:59;;;;;;;;;;;29.90;96.30;;;;;;5028539;28;19924;-80
2022/07/04 12:24:28;;;;;;;;;;;30.00;94.90;;;;;;5028389;28;19917;-79
2022/07/04 12:26:54;;;;;;;;;;;30.00;95.60;;;;;;5028652;28;19924;-82
2022/07/04 12:29:20;;;;;;;;;;;30.30;93.60;;;;;;5025193;28;19913;-78
2022/07/04 12:31:50;;;;;;;;;;;30.60;95.00;;;;;;5032381;28;19917;-77
2022/07/04 12:34:19;;;;;;;;;;;30.60;92.80;;;;;;5029292;28;19913;-77
2022/07/04 12:36:48;;;;;;;;;;;30.50;94.20;;;;;;5030156;28;19920;-77
2022/07/04 12:39:26;;;;;;;;;;;30.60;91.10;;;;;;5027993;28;19921;-77
2022/07/04 12:42:02;;;;;;;;;;;30.60;88.60;;;;;;5028271;28;19979;-78
2022/07/04 12:44:28;;;;;;;;;;;30.60;90.80;;;;;;5028595;28;19921;-77
2022/07/04 12:46:56;;;;;;;;;;;30.70;90.10;;;;;;5031907;28;20028;-77
2022/07/04 12:49:21;;;;;;;;;;;30.90;91.20;;;;;;5027891;28;19971;-78
2022/07/04 12:51:47;;;;;;;;;;;31.00;85.80;;;;;;5029920;28;20259;-78
2022/07/04 12:54:13;;;;;;;;;;;31.30;86.20;;;;;;5028422;28;19921;-78
2022/07/04 12:56:38;;;;;;;;;;;31.20;87.20;;;;;;5028132;28;19913;-77
2022/07/04 12:59:07;;;;;;;;;;;31.20;86.40;;;;;;5031183;28;20388;-77
2022/07/04 13:01:33;;;;;;;;;;;31.30;82.70;;;;;;5028657;28;19979;-77
2022/07/04 13:03:59;;;;;;;;;;;31.40;81.10;;;;;;5029104;28;19916;-77
2022/07/04 13:06:26;;;;;;;;;;;31.50;82.90;;;;;;5029648;28;19917;-77
2022/07/04 13:08:53;;;;;;;;;;;31.70;83.60;;;;;;5027952;28;19943;-77
2022/07/04 13:14:02;;;;;;;;;;;31.70;78.80;;;;;;5027398;28;19920;-78
2022/07/04 13:16:28;;;;;;;;;;;31.50;81.60;;;;;;5029661;28;19909;-78
2022/07/04 13:18:53;;;;;;;;;;;31.60;79.70;;;;;;5026398;28;19943;-77
2022/07/04 13:21:19;;;;;;;;;;;31.90;80.90;;;;;;5027101;28;19916;-77
2022/07/04 13:23:45;;;;;;;;;;;31.90;81.40;;;;;;5019884;28;19917;-78
2022/07/04 13:26:10;;;;;;;;;;;32.00;77.10;;;;;;5030058;28;20386;-78
2022/07/04 13:28:36;;;;;;;;;;;32.00;76.00;;;;;;5029556;28;20000;-78
2022/07/04 13:31:01;;;;;;;;;;;32.20;77.50;;;;;;5027858;28;19917;-78
2022/07/04 13:33:27;;;;;;;;;;;32.20;78.70;;;;;;5027592;28;19960;-78
2022/07/04 13:35:53;;;;;;;;;;;32.30;76.50;;;;;;5029237;28;19917;-78
2022/07/04 13:38:19;;;;;;;;;;;32.10;76.90;;;;;;5028996;28;19965;-79
2022/07/04 13:40:45;;;;;;;;;;;32.10;74.10;;;;;;5030018;28;19917;-78
2022/07/04 13:43:11;;;;;;;;;;;32.30;72.30;;;;;;5026866;28;19936;-79
2022/07/04 13:45:39;;;;;;;;;;;32.30;73.40;;;;;;5026459;28;19917;-78
2022/07/04 13:48:05;;;;;;;;;;;32.40;73.20;;;;;;5027704;28;20397;-79
2022/07/04 13:50:30;;;;;;;;;;;32.40;70.40;;;;;;5027704;28;19956;-79
2022/07/04 13:52:56;;;;;;;;;;;32.50;70.80;;;;;;5030784;28;19909;-79
2022/07/04 13:55:21;;;;;;;;;;;32.60;71.80;;;;;;5028436;28;19912;-78
2022/07/04 13:57:47;;;;;;;;;;;32.50;71.80;;;;;;5026712;28;19921;-79
2022/07/04 14:00:12;;;;;;;;;;;32.60;70.90;;;;;;5026469;28;19983;-78
2022/07/04 14:02:38;;;;;;;;;;;32.60;68.60;;;;;;5026009;28;19917;-79
2022/07/04 14:05:04;;;;;;;;;;;32.50;67.50;;;;;;5029731;28;19913;-78
2022/07/04 14:07:30;;;;;;;;;;;32.50;69.10;;;;;;5028067;28;20389;-78
2022/07/04 14:09:56;;;;;;;;;;;32.60;69.20;;;;;;5026678;28;19932;-80
2022/07/04 14:12:21;;;;;;;;;;;32.70;69.00;;;;;;5026113;28;19971;-80
2022/07/04 14:14:47;;;;;;;;;;;32.70;67.90;;;;;;5027289;28;20350;-81
2022/07/04 14:17:12;;;;;;;;;;;32.70;66.20;;;;;;5026574;28;19917;-79
2022/07/04 14:19:38;;;;;;;;;;;32.60;67.20;;;;;;5017216;28;19967;-80
2022/07/04 14:22:04;;;;;;;;;;;32.80;65.20;;;;;;5023025;28;20312;-80
2022/07/04 14:24:29;;;;;;;;;;;33.00;63.70;;;;;;5026977;28;20004;-80
2022/07/04 14:26:55;;;;;;;;;;;33.10;64.70;;;;;;5026856;28;20000;-79
2022/07/04 14:29:20;;;;;;;;;;;33.20;70.20;;;;;;5028268;28;19913;-80
2022/07/04 14:31:46;;;;;;;;;;;33.20;73.90;;;;;;5028473;28;19914;-80
2022/07/04 14:34:14;;;;;;;;;;;33.20;76.50;;;;;;5026235;28;20256;-79
2022/07/04 14:36:41;;;;;;;;;;;33.20;76.30;;;;;;5026976;28;19963;-80
2022/07/04 14:39:07;;;;;;;;;;;33.10;76.40;;;;;;5026608;28;19921;-80
2022/07/04 14:41:32;;;;;;;;;;;33.10;77.30;;;;;;5026612;28;21092;-79